Time;durP1;ratioP1;P1;durP2;ratioP2;P2;SDS_P1;SDS_P2;PMS_P1;PMS_P2;Temp;Humidity;BMP_temperature;BMP_pressure;BME280_temperature;BME280_humidity;BME280_pressure;Samples;Min_cycle;Max_cycle;Signal;HPM_P1;HPM_P2
2022/03/29 00:01:01;;;;;;;3.58;3.28;;;21.00;44.80;;;;;;5072215;27;43685;-62
2022/03/29 00:03:29;;;;;;;3.28;2.97;;;21.00;44.70;;;;;;5090306;27;43444;-63
2022/03/29 00:05:56;;;;;;;3.45;3.15;;;21.00;44.80;;;;;;5075558;27;43634;-63
2022/03/29 00:08:24;;;;;;;3.53;3.22;;;21.00;44.80;;;;;;5047077;27;44721;-62
2022/03/29 00:10:52;;;;;;;3.20;3.00;;;21.00;44.80;;;;;;5072245;27;43423;-63
2022/03/29 00:13:19;;;;;;;3.10;2.80;;;21.00;44.80;;;;;;5071974;27;43529;-63
2022/03/29 00:15:46;;;;;;;3.20;2.90;;;20.90;44.80;;;;;;5079942;27;43668;-63
2022/03/29 00:18:14;;;;;;;3.28;2.97;;;20.90;44.80;;;;;;5046511;27;45212;-63
2022/03/29 00:20:41;;;;;;;3.38;3.13;;;20.90;44.80;;;;;;5041010;27;43977;-63
2022/03/29 00:23:09;;;;;;;3.67;2.95;;;20.90;44.80;;;;;;5072547;27;43985;-62
2022/03/29 00:25:37;;;;;;;3.67;2.78;;;20.90;44.80;;;;;;5056484;27;43536;-63
2022/03/29 00:28:04;;;;;;;3.13;2.88;;;20.90;44.80;;;;;;5041247;27;43788;-63
2022/03/29 00:30:31;;;;;;;3.35;3.05;;;20.90;44.80;;;;;;5080836;27;43478;-62
2022/03/29 00:32:59;;;;;;;3.47;3.10;;;20.90;44.80;;;;;;5088286;27;43552;-63
2022/03/29 00:35:26;;;;;;;3.00;2.80;;;20.90;44.80;;;;;;5047328;27;43485;-63
2022/03/29 00:37:54;;;;;;;3.08;2.88;;;20.90;44.80;;;;;;5071610;27;44992;-62
2022/03/29 00:40:22;;;;;;;3.00;2.80;;;20.90;44.80;;;;;;5072099;27;43450;-62
2022/03/29 00:42:50;;;;;;;3.38;3.08;;;20.90;45.50;;;;;;5091745;27;43448;-62
2022/03/29 00:45:17;;;;;;;3.35;3.10;;;20.80;44.80;;;;;;5039196;27;43438;-63
2022/03/29 00:47:45;;;;;;;3.50;2.92;;;20.80;44.80;;;;;;5072136;27;44688;-63
2022/03/29 00:50:15;;;;;;;2.90;2.70;;;20.90;44.90;;;;;;5072123;27;43507;-62
2022/03/29 00:52:42;;;;;;;3.05;2.85;;;20.80;44.90;;;;;;5106211;27;43452;-63
2022/03/29 00:55:15;;;;;;;3.95;3.03;;;20.80;44.90;;;;;;5036018;27;43439;-63
2022/03/29 00:57:45;;;;;;;3.33;3.03;;;20.80;44.80;;;;;;5075192;27;44223;-62
2022/03/29 01:00:16;;;;;;;3.05;2.80;;;20.80;44.90;;;;;;5100142;27;43659;-62
2022/03/29 01:02:44;;;;;;;3.72;3.10;;;20.80;44.80;;;;;;5108961;27;43484;-62
2022/03/29 01:05:12;;;;;;;3.40;3.10;;;20.80;44.90;;;;;;5069172;27;43630;-63
2022/03/29 01:07:40;;;;;;;3.13;2.92;;;20.80;44.90;;;;;;5071739;27;44071;-63
2022/03/29 01:10:08;;;;;;;3.40;3.10;;;20.80;44.80;;;;;;5103852;27;44887;-63
2022/03/29 01:12:37;;;;;;;3.30;3.10;;;20.80;44.80;;;;;;5056018;27;43579;-63
2022/03/29 01:15:07;;;;;;;3.28;3.00;;;20.80;44.80;;;;;;5069452;27;43491;-63
2022/03/29 01:17:38;;;;;;;3.15;2.83;;;20.70;44.80;;;;;;5071495;27;43798;-63
2022/03/29 01:20:17;;;;;;;3.10;2.90;;;20.70;44.80;;;;;;5054472;27;44003;-62
2022/03/29 01:22:49;;;;;;;3.53;2.97;;;20.70;44.80;;;;;;5038677;27;43409;-63
2022/03/29 01:25:27;;;;;;;2.80;2.60;;;20.70;44.90;;;;;;5067119;27;43429;-62
2022/03/29 01:27:55;;;;;;;3.25;2.95;;;20.70;44.90;;;;;;5106803;27;45173;-63
2022/03/29 01:30:22;;;;;;;3.00;2.70;;;20.70;44.90;;;;;;5063332;27;43697;-62
2022/03/29 01:32:51;;;;;;;4.25;3.30;;;20.70;44.90;;;;;;5070054;27;43455;-63
2022/03/29 01:35:26;;;;;;;3.25;2.95;;;20.70;44.90;;;;;;5071405;27;43663;-62
2022/03/29 01:37:54;;;;;;;3.40;3.10;;;20.70;44.90;;;;;;5091179;27;44056;-62
2022/03/29 01:40:24;;;;;;;3.35;3.05;;;20.70;44.90;;;;;;5050484;27;43716;-62
2022/03/29 01:42:53;;;;;;;3.33;3.03;;;20.70;44.90;;;;;;5074775;27;43539;-63
2022/03/29 01:45:24;;;;;;;3.35;3.05;;;20.60;44.80;;;;;;5074886;27;43449;-62
2022/03/29 01:47:52;;;;;;;3.53;3.22;;;20.70;44.90;;;;;;5111859;27;44124;-63
2022/03/29 01:50:19;;;;;;;3.13;2.90;;;20.60;44.80;;;;;;5042296;27;43445;-63
2022/03/29 01:52:47;;;;;;;3.15;2.80;;;20.60;44.80;;;;;;5069681;27;43374;-62
2022/03/29 01:55:18;;;;;;;3.40;3.10;;;20.60;44.80;;;;;;5078321;27;43506;-62
2022/03/29 01:57:46;;;;;;;3.37;3.07;;;20.60;44.80;;;;;;5074467;27;44721;-63
2022/03/29 02:03:05;;;;;;;3.28;3.00;;;20.60;44.80;;;;;;5073684;27;43456;-62
2022/03/29 02:05:34;;;;;;;4.00;3.60;;;20.60;44.90;;;;;;5092441;27;43439;-63
2022/03/29 02:08:02;;;;;;;3.40;3.10;;;20.60;44.90;;;;;;5086820;27;45006;-62
2022/03/29 02:10:30;;;;;;;3.75;3.20;;;20.60;44.80;;;;;;5064954;27;43688;-62
2022/03/29 02:12:58;;;;;;;3.83;3.40;;;20.60;44.90;;;;;;5074067;27;43753;-62
2022/03/29 02:15:26;;;;;;;3.30;3.00;;;20.60;44.90;;;;;;5063975;27;43486;-62
2022/03/29 02:17:54;;;;;;;3.50;2.75;;;20.60;44.90;;;;;;5043739;27;44761;-63
2022/03/29 02:20:24;;;;;;;3.70;3.40;;;20.50;44.80;;;;;;5074074;27;43759;-63
2022/03/29 02:22:51;;;;;;;3.60;3.10;;;20.50;44.90;;;;;;5074139;27;43490;-62
2022/03/29 02:25:21;;;;;;;3.55;3.25;;;20.50;44.90;;;;;;5099527;27;43499;-62
2022/03/29 02:27:49;;;;;;;3.30;3.10;;;20.50;44.90;;;;;;5106873;27;45031;-62
2022/03/29 02:30:16;;;;;;;3.67;3.38;;;20.50;44.80;;;;;;5074269;27;43477;-63
2022/03/29 02:32:44;;;;;;;3.45;3.15;;;20.50;44.80;;;;;;5083688;27;43376;-62
2022/03/29 02:35:13;;;;;;;3.80;3.50;;;20.60;44.90;;;;;;5060777;27;43474;-63
2022/03/29 02:37:41;;;;;;;3.85;3.55;;;20.50;44.90;;;;;;5109924;27;44977;-62
2022/03/29 02:40:10;;;;;;;3.80;3.50;;;20.50;44.90;;;;;;5082339;27;44037;-63
2022/03/29 02:42:41;;;;;;;3.60;3.30;;;20.50;44.90;;;;;;5085909;27;43409;-63
2022/03/29 02:45:15;;;;;;;3.65;3.35;;;20.50;44.90;;;;;;5050981;27;43524;-63
2022/03/29 02:47:45;;;;;;;3.95;3.65;;;20.50;45.00;;;;;;5072563;27;44978;-62
2022/03/29 02:50:13;;;;;;;3.80;3.50;;;20.50;44.80;;;;;;5073605;27;43370;-63
2022/03/29 02:52:50;;;;;;;3.78;3.47;;;20.50;44.90;;;;;;5098034;27;43448;-62
2022/03/29 02:55:19;;;;;;;4.00;3.67;;;20.40;44.80;;;;;;5037931;27;43601;-63
2022/03/29 02:57:47;;;;;;;3.70;3.40;;;20.40;44.90;;;;;;5073701;27;44676;-62
2022/03/29 03:00:16;;;;;;;4.10;3.70;;;20.40;45.00;;;;;;5082170;27;43541;-63
2022/03/29 03:02:45;;;;;;;4.05;3.65;;;20.40;44.90;;;;;;5105804;27;43427;-63
2022/03/29 03:05:14;;;;;;;4.05;3.47;;;20.40;44.90;;;;;;5071267;27;43501;-62
2022/03/29 03:07:43;;;;;;;4.13;3.72;;;20.40;44.90;;;;;;5073179;27;44064;-63
2022/03/29 03:10:11;;;;;;;3.80;3.42;;;20.40;45.00;;;;;;5117989;27;43756;-62
2022/03/29 03:12:40;;;;;;;3.55;3.33;;;20.40;45.00;;;;;;5097047;27;43468;-63
2022/03/29 03:15:10;;;;;;;4.00;3.70;;;20.40;45.00;;;;;;5073530;27;43616;-63
2022/03/29 03:17:38;;;;;;;3.30;3.10;;;20.30;44.90;;;;;;5073134;27;44002;-63
2022/03/29 03:20:06;;;;;;;4.75;4.15;;;20.40;45.00;;;;;;5083767;27;44338;-63
2022/03/29 03:22:37;;;;;;;3.70;3.30;;;20.40;45.00;;;;;;5036260;27;43406;-63
2022/03/29 03:25:05;;;;;;;;;;;20.30;44.90;;;;;;5073506;27;43509;-62
2022/03/29 03:27:35;;;;;;;3.90;3.60;;;20.30;45.00;;;;;;5070190;27;43626;-62
2022/03/29 03:30:05;;;;;;;3.90;3.50;;;20.30;45.10;;;;;;5049673;27;43541;-62
2022/03/29 03:32:32;;;;;;;3.67;3.38;;;20.30;45.00;;;;;;5070351;27;43480;-62
2022/03/29 03:35:00;;;;;;;3.67;3.38;;;20.20;45.00;;;;;;5092225;27;43648;-62
2022/03/29 03:37:28;;;;;;;4.10;3.70;;;20.30;45.10;;;;;;5073876;27;43900;-63
2022/03/29 03:39:55;;;;;;;4.38;3.88;;;20.30;45.00;;;;;;5069913;27;43443;-62
2022/03/29 03:42:23;;;;;;;3.85;3.55;;;20.30;45.00;;;;;;5069927;27;43455;-62
2022/03/29 03:44:50;;;;;;;4.03;3.67;;;20.20;45.00;;;;;;5068719;27;43573;-63
2022/03/29 03:47:19;;;;;;;3.78;3.38;;;20.20;45.00;;;;;;5054612;27;44435;-63
2022/03/29 03:49:46;;;;;;;3.85;3.33;;;20.20;45.00;;;;;;5056146;27;43515;-62
2022/03/29 03:52:14;;;;;;;4.00;3.60;;;20.20;45.00;;;;;;5069657;27;43441;-63
2022/03/29 03:54:42;;;;;;;3.72;3.42;;;20.20;45.10;;;;;;5069288;27;43411;-62
2022/03/29 03:57:09;;;;;;;4.00;3.60;;;20.20;45.10;;;;;;5071101;27;44679;-63
2022/03/29 03:59:36;;;;;;;4.05;3.75;;;20.20;45.00;;;;;;5049807;27;43403;-62
2022/03/29 04:02:04;;;;;;;4.05;3.65;;;20.20;45.00;;;;;;5069622;27;43438;-62
2022/03/29 04:04:31;;;;;;;4.60;4.05;;;20.20;45.00;;;;;;5070465;27;43934;-63
2022/03/29 04:06:59;;;;;;;3.97;3.58;;;20.20;45.00;;;;;;5066437;27;43867;-63
2022/03/29 04:09:28;;;;;;;4.03;3.70;;;20.10;45.00;;;;;;5080448;27;43487;-63
2022/03/29 04:11:55;;;;;;;4.25;3.90;;;20.10;45.00;;;;;;5069476;27;43415;-63
2022/03/29 04:14:22;;;;;;;3.90;3.60;;;20.10;45.00;;;;;;5039666;27;43486;-63
2022/03/29 04:16:50;;;;;;;3.70;3.40;;;20.20;45.00;;;;;;5062812;27;45096;-62
2022/03/29 04:19:20;;;;;;;3.80;3.50;;;20.20;45.10;;;;;;5076591;27;43545;-62
2022/03/29 04:21:48;;;;;;;4.20;3.80;;;20.10;45.10;;;;;;5069350;27;43391;-62
2022/03/29 04:24:16;;;;;;;3.88;3.55;;;20.10;45.10;;;;;;5038104;28;43600;-63
2022/03/29 04:26:43;;;;;;;4.25;3.92;;;20.10;45.10;;;;;;5080713;27;44065;-62
2022/03/29 04:29:11;;;;;;;4.72;4.00;;;20.10;45.10;;;;;;5065385;27;43447;-63
2022/03/29 04:31:38;;;;;;;4.13;3.80;;;20.10;45.10;;;;;;5075288;27;43446;-62
2022/03/29 04:34:06;;;;;;;4.00;3.70;;;20.10;45.00;;;;;;5056392;27;43568;-63
2022/03/29 04:36:33;;;;;;;4.13;3.55;;;20.10;45.00;;;;;;5086223;27;44695;-63
2022/03/29 04:39:01;;;;;;;4.00;3.60;;;20.10;45.10;;;;;;5084415;27;43420;-63
2022/03/29 04:41:28;;;;;;;4.25;3.53;;;20.10;45.00;;;;;;5069071;27;43453;-63
2022/03/29 04:43:58;;;;;;;3.88;3.58;;;20.10;45.00;;;;;;5061255;27;43455;-63
2022/03/29 04:46:27;;;;;;;4.95;3.85;;;20.10;45.10;;;;;;5053600;27;44980;-63
2022/03/29 04:48:54;;;;;;;5.07;4.15;;;20.10;45.10;;;;;;5091516;27;43552;-62
2022/03/29 04:51:22;;;;;;;3.50;3.20;;;20.10;45.10;;;;;;5072426;27;43489;-63
2022/03/29 04:53:49;;;;;;;3.65;3.35;;;20.10;45.00;;;;;;5055413;27;43443;-62
2022/03/29 04:56:17;;;;;;;3.60;3.30;;;20.10;45.00;;;;;;5048802;27;43886;-62
2022/03/29 04:58:45;;;;;;;3.83;3.53;;;20.10;45.10;;;;;;5090990;27;43510;-62
2022/03/29 05:01:13;;;;;;;4.13;3.75;;;20.00;45.00;;;;;;5111223;27;43541;-63
2022/03/29 05:03:40;;;;;;;3.85;3.30;;;20.00;45.00;;;;;;5083859;27;43543;-62
2022/03/29 05:06:08;;;;;;;3.78;3.47;;;20.00;45.10;;;;;;5046652;27;43762;-62
2022/03/29 05:08:36;;;;;;;3.70;3.40;;;20.00;45.10;;;;;;5090654;27;43431;-63
2022/03/29 05:11:04;;;;;;;3.90;3.50;;;20.00;45.10;;;;;;5102771;27;43375;-63
2022/03/29 05:13:31;;;;;;;3.75;3.45;;;20.00;45.10;;;;;;5054580;27;43610;-62
2022/03/29 05:15:59;;;;;;;3.83;3.47;;;20.00;45.10;;;;;;5082897;27;44686;-63
2022/03/29 05:18:26;;;;;;;3.72;3.42;;;20.00;45.10;;;;;;5092426;27;44623;-63
2022/03/29 05:20:54;;;;;;;4.20;3.80;;;20.00;45.10;;;;;;5110594;27;43466;-62
2022/03/29 05:23:22;;;;;;;3.45;3.13;;;19.90;45.10;;;;;;5051661;27;43430;-63
2022/03/29 05:25:50;;;;;;;3.67;3.38;;;20.00;45.10;;;;;;5084390;27;44058;-63
2022/03/29 05:28:17;;;;;;;3.90;3.50;;;20.00;45.10;;;;;;5093390;27;43532;-62
2022/03/29 05:30:45;;;;;;;4.47;3.75;;;19.90;45.20;;;;;;5068375;27;43525;-62
2022/03/29 05:33:15;;;;;;;4.18;3.78;;;19.90;45.20;;;;;;5085070;27;43583;-62
2022/03/29 05:35:44;;;;;;;3.85;3.55;;;19.90;45.30;;;;;;5086348;27;44697;-63
2022/03/29 05:38:12;;;;;;;3.95;3.55;;;19.90;45.30;;;;;;5084168;27;43633;-62
2022/03/29 05:40:39;;;;;;;5.18;3.50;;;19.80;45.30;;;;;;5062231;27;43531;-62
2022/03/29 05:43:11;;;;;;;3.90;3.40;;;19.80;45.30;;;;;;5097104;27;43547;-63
2022/03/29 05:45:40;;;;;;;4.43;3.80;;;19.80;45.40;;;;;;5111941;27;43802;-63
2022/03/29 05:50:54;;;;;;;3.80;3.47;;;19.80;45.40;;;;;;5042598;27;43400;-62
2022/03/29 05:53:22;;;;;;;4.10;3.80;;;19.80;45.40;;;;;;5084808;27;43466;-62
2022/03/29 05:55:50;;;;;;;4.15;3.50;;;19.80;45.50;;;;;;5093680;27;43756;-62
2022/03/29 05:58:17;;;;;;;5.72;3.63;;;19.70;45.40;;;;;;5096387;27;43536;-64
2022/03/29 06:00:45;;;;;;;4.05;3.75;;;19.70;45.50;;;;;;5044143;27;43425;-64
2022/03/29 06:03:13;;;;;;;4.40;4.00;;;19.70;45.50;;;;;;5086322;27;43505;-63
2022/03/29 06:05:42;;;;;;;4.63;4.00;;;19.70;45.50;;;;;;5092325;27;43807;-64
2022/03/29 06:08:10;;;;;;;4.28;3.88;;;19.80;45.50;;;;;;5053395;27;43402;-64
2022/03/29 06:10:38;;;;;;;5.30;4.28;;;19.80;45.50;;;;;;5040362;27;43953;-63
2022/03/29 06:13:08;;;;;;;5.03;4.13;;;19.80;45.50;;;;;;5071937;27;43576;-62
2022/03/29 06:15:36;;;;;;;5.78;5.28;;;19.80;45.50;;;;;;5065210;27;44721;-63
2022/03/29 06:18:04;;;;;;;6.13;5.18;;;19.80;45.60;;;;;;5061094;27;43478;-61
2022/03/29 06:20:33;;;;;;;6.00;5.40;;;19.80;45.60;;;;;;5094618;27;43483;-62
2022/03/29 06:23:00;;;;;;;5.50;5.00;;;19.90;45.70;;;;;;5078924;27;43562;-63
2022/03/29 06:25:28;;;;;;;6.25;5.10;;;19.90;45.60;;;;;;5060212;27;44941;-62
2022/03/29 06:27:55;;;;;;;6.70;5.30;;;20.00;46.10;;;;;;5094973;27;43707;-62
2022/03/29 06:30:23;;;;;;;5.57;5.03;;;20.10;45.40;;;;;;5085400;27;43474;-62
2022/03/29 06:32:52;;;;;;;7.60;4.97;;;20.10;45.40;;;;;;5114107;27;43511;-63
2022/03/29 06:35:25;;;;;;;5.63;4.70;;;20.20;45.30;;;;;;5053257;27;43807;-63
2022/03/29 06:37:58;;;;;;;5.28;4.50;;;20.30;45.20;;;;;;5070522;27;43681;-63
2022/03/29 06:40:27;;;;;;;5.68;4.80;;;20.40;45.10;;;;;;5077501;27;43413;-63
2022/03/29 06:42:57;;;;;;;4.97;4.45;;;20.40;45.10;;;;;;5092024;27;43454;-63
2022/03/29 06:45:26;;;;;;;5.20;4.35;;;20.50;45.00;;;;;;5047557;27;44970;-63
2022/03/29 06:47:54;;;;;;;4.70;4.30;;;20.60;44.90;;;;;;5074448;27;43809;-63
2022/03/29 06:50:22;;;;;;;4.88;4.43;;;20.80;44.80;;;;;;5082909;27;43535;-63
2022/03/29 06:52:49;;;;;;;5.05;4.50;;;21.00;44.70;;;;;;5083879;27;43407;-61
2022/03/29 06:55:21;;;;;;;6.50;4.82;;;21.20;44.40;;;;;;5084744;27;43824;-62
2022/03/29 06:57:48;;;;;;;7.88;5.25;;;21.40;44.50;;;;;;5073865;27;43779;-61
2022/03/29 07:00:16;;;;;;;6.95;4.47;;;21.60;44.40;;;;;;5086163;27;43421;-61
2022/03/29 07:02:44;;;;;;;7.90;4.72;;;21.70;44.20;;;;;;5109412;27;43624;-61
2022/03/29 07:05:14;;;;;;;6.15;4.63;;;21.90;43.80;;;;;;5037164;27;43853;-61
2022/03/29 07:07:42;;;;;;;7.53;4.95;;;22.10;43.70;;;;;;5070896;27;43405;-62
2022/03/29 07:12:58;;;;;;;6.03;4.78;;;22.50;43.40;;;;;;5050457;27;43443;-62
2022/03/29 07:15:27;;;;;;;6.20;5.60;;;22.70;43.20;;;;;;5073197;27;43793;-62
2022/03/29 07:17:55;;;;;;;7.40;4.93;;;22.90;42.90;;;;;;5077945;27;43648;-61
2022/03/29 07:20:23;;;;;;;6.38;4.68;;;23.10;42.50;;;;;;5062232;27;43435;-61
2022/03/29 07:22:51;;;;;;;7.13;5.13;;;23.20;42.60;;;;;;5083586;27;43653;-61
2022/03/29 07:25:20;;;;;;;5.82;5.05;;;23.40;42.50;;;;;;5073141;27;43737;-60
2022/03/29 07:27:53;;;;;;;6.85;5.20;;;23.50;42.70;;;;;;5121199;27;43528;-61
2022/03/29 07:30:22;;;;;;;7.95;4.90;;;23.60;42.50;;;;;;5068343;27;43446;-61
2022/03/29 07:32:57;;;;;;;6.97;4.50;;;23.70;42.40;;;;;;5039147;27;43596;-62
2022/03/29 07:35:27;;;;;;;6.93;4.93;;;23.80;42.50;;;;;;5072420;27;43836;-62
2022/03/29 07:37:56;;;;;;;5.47;4.53;;;23.90;42.40;;;;;;5093077;27;43451;-61
2022/03/29 07:40:25;;;;;;;6.07;4.72;;;24.00;42.30;;;;;;5052830;27;43475;-60
2022/03/29 07:42:53;;;;;;;6.03;4.95;;;24.10;42.10;;;;;;5066785;27;43467;-61
2022/03/29 07:45:21;;;;;;;6.40;4.45;;;24.30;42.20;;;;;;5077811;27;44125;-63
2022/03/29 07:47:51;;;;;;;6.70;4.72;;;24.40;42.10;;;;;;5071463;27;43738;-62
2022/03/29 07:50:39;;;;;;;7.28;4.78;;;24.50;41.80;;;;;;5086751;27;43436;-61
2022/03/29 07:53:07;;;;;;;5.30;4.70;;;24.70;41.80;;;;;;5073741;27;43495;-62
2022/03/29 07:55:40;;;;;;;7.32;4.68;;;24.80;41.50;;;;;;5091775;27;44154;-62
2022/03/29 07:58:12;;;;;;;7.45;4.43;;;24.90;40.90;;;;;;5057895;27;43384;-61
2022/03/29 08:00:40;;;;;;;6.13;4.72;;;25.10;40.90;;;;;;5040376;27;43464;-61
2022/03/29 08:03:10;;;;;;;6.57;4.78;;;25.10;40.50;;;;;;5043070;27;43893;-61
2022/03/29 08:05:41;;;;;;;5.25;4.63;;;25.20;40.70;;;;;;5044786;27;45099;-61
2022/03/29 08:08:11;;;;;;;6.47;4.55;;;25.30;40.70;;;;;;5054425;27;43991;-61
2022/03/29 08:10:39;;;;;;;6.72;4.93;;;25.40;40.60;;;;;;5059988;27;43710;-62
2022/03/29 08:13:08;;;;;;;5.07;4.45;;;25.40;40.60;;;;;;5076445;27;43460;-61
2022/03/29 08:15:39;;;;;;;5.93;4.47;;;25.40;40.60;;;;;;5049811;27;43634;-61
2022/03/29 08:18:07;;;;;;;5.82;4.03;;;25.40;40.80;;;;;;5029870;27;44086;-62
2022/03/29 08:20:36;;;;;;;6.03;4.10;;;25.30;40.80;;;;;;5044371;27;43475;-61
2022/03/29 08:23:04;;;;;;;6.35;4.15;;;25.30;41.10;;;;;;5057363;27;43538;-61
2022/03/29 08:25:35;;;;;;;6.38;4.22;;;25.20;40.80;;;;;;5097081;27;43742;-61
2022/03/29 08:28:04;;;;;;;;;;;25.20;40.90;;;;;;5038927;27;43405;-62
2022/03/29 08:30:32;;;;;;;6.35;4.05;;;25.10;40.70;;;;;;5044001;27;43577;-62
2022/03/29 08:33:02;;;;;;;5.65;4.05;;;25.00;40.80;;;;;;5053868;27;43466;-62
2022/03/29 08:35:30;;;;;;;6.80;3.72;;;25.00;40.90;;;;;;5041137;27;44898;-61
2022/03/29 08:37:59;;;;;;;4.82;3.65;;;25.00;40.90;;;;;;5074507;27;43429;-61
2022/03/29 08:40:46;;;;;;;7.25;3.55;;;25.00;40.90;;;;;;5104604;27;43450;-62
2022/03/29 08:43:15;;;;;;;5.82;4.05;;;25.10;41.10;;;;;;5110884;27;43469;-61
2022/03/29 08:45:48;;;;;;;6.35;3.83;;;25.10;41.00;;;;;;5111527;27;44784;-62
2022/03/29 08:48:16;;;;;;;5.38;3.53;;;25.20;41.00;;;;;;5108324;27;43722;-62
2022/03/29 08:50:45;;;;;;;5.53;3.47;;;25.20;40.70;;;;;;5106790;27;43536;-61
2022/03/29 08:53:18;;;;;;;5.82;3.30;;;25.30;40.70;;;;;;5109178;27;43604;-62
2022/03/29 08:55:47;;;;;;;4.55;3.42;;;25.30;40.60;;;;;;5109381;27;44409;-61
2022/03/29 08:58:18;;;;;;;5.82;3.30;;;25.30;40.70;;;;;;5107038;27;43528;-62
2022/03/29 09:00:46;;;;;;;8.40;3.70;;;25.30;40.60;;;;;;5105176;27;43443;-61
2022/03/29 09:03:16;;;;;;;5.60;3.53;;;25.40;40.60;;;;;;5109958;27;43465;-60
2022/03/29 09:05:44;;;;;;;4.70;3.20;;;25.40;40.50;;;;;;5102300;27;46122;-61
2022/03/29 09:08:13;;;;;;;4.80;3.10;;;25.40;40.60;;;;;;5102248;27;43703;-61
2022/03/29 09:10:41;;;;;;;5.68;3.10;;;25.40;40.50;;;;;;5103602;27;43491;-62
2022/03/29 09:13:15;;;;;;;5.78;3.15;;;25.40;40.60;;;;;;5099603;27;43596;-61
2022/03/29 09:15:44;;;;;;;4.53;3.05;;;25.40;40.50;;;;;;5106284;27;43785;-61
2022/03/29 09:18:12;;;;;;;3.58;2.83;;;25.40;40.50;;;;;;5107334;27;43703;-61
2022/03/29 09:20:40;;;;;;;3.92;3.00;;;25.40;40.60;;;;;;5108698;27;43396;-61
2022/03/29 09:23:17;;;;;;;4.20;3.13;;;25.40;40.50;;;;;;5103410;27;43547;-61
2022/03/29 09:25:47;;;;;;;6.53;2.90;;;25.30;40.20;;;;;;5104439;27;44960;-62
2022/03/29 09:28:19;;;;;;;4.03;2.38;;;25.30;40.30;;;;;;5105880;27;43537;-62
2022/03/29 09:30:48;;;;;;;5.30;2.80;;;25.20;40.60;;;;;;5107978;27;43497;-62
2022/03/29 09:33:21;;;;;;;5.30;2.90;;;25.10;39.90;;;;;;5101914;27;43444;-61
2022/03/29 09:35:52;;;;;;;6.50;3.13;;;25.10;40.30;;;;;;5102002;27;43809;-61
2022/03/29 09:38:23;;;;;;;5.22;2.95;;;25.10;40.30;;;;;;5100103;27;43685;-61
2022/03/29 09:40:51;;;;;;;6.28;2.70;;;25.10;40.60;;;;;;5035186;27;43480;-61
2022/03/29 09:44:10;;;;;;;4.53;2.90;;;25.10;40.60;;;;;;5043241;27;43549;-61
2022/03/29 09:47:04;;;;;;;3.83;2.88;;;25.00;41.10;;;;;;5047247;27;44909;-61
2022/03/29 09:49:55;;;;;;;4.30;3.05;;;25.00;40.80;;;;;;5049361;27;43431;-61
2022/03/29 09:52:28;;;;;;;4.57;2.83;;;25.00;40.90;;;;;;5039694;27;43470;-61
2022/03/29 09:55:09;;;;;;;4.72;2.60;;;25.00;40.80;;;;;;5058027;27;43453;-61
2022/03/29 09:57:46;;;;;;;4.35;2.60;;;25.00;41.00;;;;;;5112418;27;44983;-61
2022/03/29 10:00:17;;;;;;;4.30;2.70;;;25.00;41.10;;;;;;5037793;28;43801;-61
2022/03/29 10:02:46;;;;;;;4.40;3.13;;;25.00;41.30;;;;;;5040850;27;43437;-61
2022/03/29 10:05:18;;;;;;;5.78;2.90;;;25.00;41.10;;;;;;5063642;27;43516;-61
2022/03/29 10:09:25;;;;;;;4.88;2.83;;;25.00;41.10;;;;;;5073831;27;43777;-61
2022/03/29 10:10:43;;;;;;;6.05;2.58;;;25.00;40.80;;;;;;5052396;27;43524;-61
2022/03/29 10:13:13;;;;;;;3.28;2.22;;;24.90;40.70;;;;;;5038116;27;43510;-61
2022/03/29 10:15:42;;;;;;;4.95;2.50;;;25.00;40.80;;;;;;5036187;27;43577;-61
2022/03/29 10:18:10;;;;;;;5.95;2.70;;;25.00;40.80;;;;;;5062661;27;43748;-62
2022/03/29 10:20:39;;;;;;;4.15;2.65;;;25.00;40.70;;;;;;5101640;27;43732;-61
2022/03/29 10:23:07;;;;;;;4.10;2.50;;;24.90;40.70;;;;;;5041457;27;43504;-61
2022/03/29 10:25:38;;;;;;;4.60;2.70;;;25.00;40.80;;;;;;5075460;27;43480;-61
2022/03/29 10:28:07;;;;;;;5.47;2.78;;;25.00;40.80;;;;;;5057971;27;43801;-61
2022/03/29 10:30:39;;;;;;;4.05;2.75;;;24.90;40.70;;;;;;5090283;27;44247;-61
2022/03/29 10:33:20;;;;;;;4.93;2.72;;;24.90;40.60;;;;;;5036710;27;43385;-62
2022/03/29 10:36:11;;;;;;;5.65;3.10;;;24.90;40.90;;;;;;5056650;27;43565;-61
2022/03/29 10:38:44;;;;;;;;;;;24.80;40.70;;;;;;5057140;27;43801;-62
2022/03/29 10:41:27;;;;;;;5.40;2.97;;;24.80;40.70;;;;;;5057253;27;43498;-61
2022/03/29 10:44:08;;;;;;;4.60;2.80;;;24.70;41.30;;;;;;5062925;27;43438;-61
2022/03/29 10:46:41;;;;;;;4.25;2.50;;;24.70;41.30;;;;;;5057858;27;43715;-62
2022/03/29 10:49:22;;;;;;;5.18;2.80;;;24.70;41.10;;;;;;5048880;27;44996;-62
2022/03/29 10:51:53;;;;;;;6.20;2.83;;;24.70;41.00;;;;;;5056300;27;43986;-62
2022/03/29 10:54:25;;;;;;;5.38;2.80;;;24.70;41.10;;;;;;5048338;27;43442;-61
2022/03/29 10:57:01;;;;;;;5.38;2.60;;;24.70;41.00;;;;;;5056061;27;43484;-62
2022/03/29 10:59:30;;;;;;;6.90;3.10;;;24.60;41.00;;;;;;5045233;27;44049;-62
2022/03/29 11:02:09;;;;;;;4.25;2.92;;;24.60;41.10;;;;;;5038978;27;43736;-62
2022/03/29 11:04:57;;;;;;;4.88;2.72;;;24.50;41.00;;;;;;5037033;28;43474;-62
2022/03/29 11:07:25;;;;;;;6.18;2.78;;;24.50;41.10;;;;;;5058437;27;43615;-62
2022/03/29 11:10:09;;;;;;;5.07;2.78;;;24.50;41.30;;;;;;5052172;27;44671;-61
2022/03/29 11:12:39;;;;;;;6.55;3.00;;;24.40;41.20;;;;;;5054992;27;43487;-61
2022/03/29 11:15:37;;;;;;;6.53;3.35;;;24.30;41.30;;;;;;5062418;27;43540;-60
2022/03/29 11:18:31;;;;;;;7.43;3.05;;;24.30;41.50;;;;;;5027256;27;43658;-61
2022/03/29 11:21:03;;;;;;;6.22;3.10;;;24.20;41.50;;;;;;5035643;27;44103;-61
2022/03/29 11:23:38;;;;;;;11.23;3.55;;;24.10;41.40;;;;;;5057851;27;44012;-61
2022/03/29 11:26:10;;;;;;;8.73;3.08;;;24.10;41.40;;;;;;5037113;27;43445;-62
2022/03/29 11:28:49;;;;;;;7.30;3.50;;;24.00;41.40;;;;;;5040680;27;43576;-62
2022/03/29 11:31:18;;;;;;;6.63;3.38;;;23.90;41.30;;;;;;5036597;27;44616;-61
2022/03/29 11:33:49;;;;;;;7.05;3.47;;;24.00;41.50;;;;;;5033657;27;43628;-61
2022/03/29 11:36:19;;;;;;;6.00;3.50;;;23.90;41.50;;;;;;5031461;27;43501;-61
2022/03/29 11:38:47;;;;;;;7.78;3.38;;;23.90;41.60;;;;;;5037248;27;43523;-61
2022/03/29 11:41:22;;;;;;;6.47;3.20;;;23.90;42.00;;;;;;5039788;27;44976;-61
2022/03/29 11:43:59;;;;;;;5.10;3.13;;;23.80;42.00;;;;;;5039323;27;43808;-62
2022/03/29 11:46:53;;;;;;;6.50;3.55;;;23.80;42.00;;;;;;5040174;27;43437;-61
2022/03/29 11:49:26;;;;;;;5.43;3.15;;;23.80;41.80;;;;;;5039226;27;43593;-61
2022/03/29 11:52:08;;;;;;;5.03;3.05;;;23.70;42.10;;;;;;5044591;27;44034;-62
2022/03/29 11:54:49;;;;;;;6.28;3.38;;;23.70;42.70;;;;;;5036204;27;43672;-61
2022/03/29 11:57:25;;;;;;;7.38;3.30;;;23.70;42.20;;;;;;5038130;27;43424;-61
2022/03/29 11:59:54;;;;;;;6.40;3.25;;;23.60;42.20;;;;;;5045189;27;43478;-62
2022/03/29 12:02:26;;;;;;;6.72;3.03;;;23.60;42.20;;;;;;5033457;28;44558;-62
2022/03/29 12:04:55;;;;;;;6.88;3.35;;;23.50;42.60;;;;;;5036989;27;43432;-61
2022/03/29 12:07:45;;;;;;;5.80;3.30;;;23.50;42.40;;;;;;5032489;27;43466;-61
2022/03/29 12:10:28;;;;;;;4.38;2.95;;;23.50;42.10;;;;;;5035424;27;43772;-61
2022/03/29 12:12:56;;;;;;;5.88;3.10;;;23.50;42.20;;;;;;5067667;27;44258;-61
2022/03/29 12:15:24;;;;;;;4.30;2.90;;;23.50;42.20;;;;;;5045913;27;43470;-62
2022/03/29 12:20:44;;;;;;;6.80;3.63;;;23.40;42.20;;;;;;5045003;27;43632;-61
2022/03/29 12:23:23;;;;;;;6.37;3.40;;;23.40;42.20;;;;;;5062403;27;43849;-62
2022/03/29 12:25:50;;;;;;;4.47;3.42;;;23.40;42.30;;;;;;5035964;27;43668;-61
2022/03/29 12:28:19;;;;;;;3.80;3.08;;;23.40;42.30;;;;;;5038996;27;43983;-61
2022/03/29 12:30:48;;;;;;;5.13;3.55;;;23.40;42.40;;;;;;5039173;27;43600;-61
2022/03/29 12:33:16;;;;;;;5.53;3.28;;;23.30;42.40;;;;;;5034875;27;44682;-62
2022/03/29 12:35:44;;;;;;;4.30;3.10;;;23.30;42.40;;;;;;5034535;27;43471;-61
2022/03/29 12:38:12;;;;;;;5.55;3.42;;;23.20;42.30;;;;;;5039153;27;43432;-61
2022/03/29 12:40:52;;;;;;;6.88;3.40;;;23.20;42.40;;;;;;5048908;27;43492;-61
2022/03/29 12:43:27;;;;;;;5.43;3.20;;;23.20;42.40;;;;;;5037941;27;43801;-62
2022/03/29 12:45:55;;;;;;;4.95;3.00;;;23.10;42.40;;;;;;5036628;27;43773;-61
2022/03/29 12:48:25;;;;;;;5.03;2.92;;;23.10;42.60;;;;;;5048575;27;43496;-62
2022/03/29 12:50:53;;;;;;;4.93;2.95;;;23.10;42.50;;;;;;5037498;27;43611;-61
2022/03/29 12:53:20;;;;;;;4.20;2.90;;;23.10;42.50;;;;;;5038655;27;43837;-61
2022/03/29 12:55:59;;;;;;;5.53;3.20;;;23.10;42.50;;;;;;5039971;27;43730;-61
2022/03/29 12:58:31;;;;;;;6.07;2.95;;;23.20;42.50;;;;;;5037905;27;43556;-61
2022/03/29 13:01:00;;;;;;;5.00;3.50;;;23.20;42.50;;;;;;5045247;27;43583;-60
2022/03/29 13:03:35;;;;;;;5.35;2.90;;;23.20;42.50;;;;;;5039560;27;44041;-61
2022/03/29 13:06:03;;;;;;;5.90;2.80;;;23.10;42.50;;;;;;5078016;27;43524;-62
2022/03/29 13:08:31;;;;;;;4.15;3.00;;;23.20;42.50;;;;;;5030753;27;43493;-61
2022/03/29 13:11:13;;;;;;;4.95;2.90;;;23.20;42.50;;;;;;5036456;27;43537;-61
2022/03/29 13:13:41;;;;;;;4.57;3.38;;;23.20;42.60;;;;;;5036279;27;44119;-62
2022/03/29 13:16:19;;;;;;;4.15;2.63;;;23.20;42.60;;;;;;5064824;27;43476;-62